Time;durP1;ratioP1;P1;durP2;ratioP2;P2;SDS_P1;SDS_P2;PMS_P1;PMS_P2;Temp;Humidity;BMP_temperature;BMP_pressure;BME280_temperature;BME280_humidity;BME280_pressure;Samples;Min_cycle;Max_cycle;Signal;HPM_P1;HPM_P2
2021/08/09 00:01:40;;;;;;;8.52;4.03;;;17.50;72.40;;;;;;5025435;28;20498;-71
2021/08/09 00:04:08;;;;;;;8.60;4.35;;;17.70;72.00;;;;;;5022561;28;20025;-72
2021/08/09 00:06:36;;;;;;;8.85;3.70;;;17.80;71.50;;;;;;5027032;28;20022;-68
2021/08/09 00:09:04;;;;;;;8.07;3.78;;;17.90;71.30;;;;;;5028846;28;20053;-65
2021/08/09 00:11:50;;;;;;;7.57;3.90;;;18.10;70.40;;;;;;5028354;28;20035;-61
2021/08/09 00:14:27;;;;;;;8.40;3.78;;;18.20;70.10;;;;;;5024315;28;20083;-70
2021/08/09 00:16:54;;;;;;;6.30;3.58;;;18.30;69.60;;;;;;5027048;28;20083;-69
2021/08/09 00:19:22;;;;;;;8.05;4.28;;;18.40;69.20;;;;;;5026486;28;20178;-66
2021/08/09 00:21:49;;;;;;;5.38;3.38;;;18.40;69.00;;;;;;5012312;28;20040;-63
2021/08/09 00:24:18;;;;;;;6.47;3.83;;;18.50;68.80;;;;;;5021986;28;20021;-62
2021/08/09 00:26:46;;;;;;;9.65;4.43;;;18.50;68.00;;;;;;5026089;28;20028;-68
2021/08/09 00:29:13;;;;;;;10.02;4.25;;;18.70;67.70;;;;;;5026918;28;20449;-70
2021/08/09 00:31:40;;;;;;;9.90;3.35;;;18.80;67.50;;;;;;5026933;28;20029;-69
2021/08/09 00:34:08;;;;;;;5.88;3.00;;;18.90;67.60;;;;;;5028887;28;20045;-68
2021/08/09 00:36:35;;;;;;;6.53;3.17;;;18.90;67.30;;;;;;5025429;28;20404;-69
2021/08/09 00:39:03;;;;;;;6.65;3.30;;;18.90;66.00;;;;;;5030051;28;20036;-67
2021/08/09 00:41:31;;;;;;;11.18;4.30;;;18.80;66.50;;;;;;5027705;28;20021;-67
2021/08/09 00:43:58;;;;;;;8.07;3.10;;;18.70;66.50;;;;;;5020793;28;20036;-66
2021/08/09 00:46:29;;;;;;;8.15;3.65;;;18.60;67.00;;;;;;5025348;28;20132;-67
2021/08/09 00:48:57;;;;;;;4.60;3.15;;;18.50;67.40;;;;;;5026421;28;20023;-64
2021/08/09 00:51:24;;;;;;;6.78;3.90;;;18.30;68.00;;;;;;5029493;28;20620;-70
2021/08/09 00:53:52;;;;;;;6.70;3.28;;;18.20;68.80;;;;;;5020819;28;20780;-65
2021/08/09 00:56:20;;;;;;;8.48;3.65;;;18.10;69.10;;;;;;5025467;28;20044;-66
2021/08/09 00:58:47;;;;;;;6.32;3.00;;;18.10;69.30;;;;;;5008660;28;20456;-68
2021/08/09 01:01:15;;;;;;;8.02;3.40;;;18.10;69.20;;;;;;5026707;28;20091;-68
2021/08/09 01:03:42;;;;;;;7.20;3.60;;;18.00;70.10;;;;;;5022857;28;20025;-67
2021/08/09 01:06:09;;;;;;;6.30;2.90;;;17.90;70.10;;;;;;5026156;28;20037;-67
2021/08/09 01:09:07;;;;;;;9.00;3.53;;;17.80;71.00;;;;;;5030114;28;20026;-66
2021/08/09 01:12:03;;;;;;;7.50;3.70;;;17.80;71.20;;;;;;5024852;28;20034;-72
2021/08/09 01:14:52;;;;;;;9.68;2.85;;;17.80;71.30;;;;;;5018551;28;20049;-64
2021/08/09 01:17:22;;;;;;;7.53;3.65;;;17.70;71.70;;;;;;5026119;28;20112;-66
2021/08/09 01:20:09;;;;;;;6.50;3.22;;;17.70;71.80;;;;;;5008653;28;20484;-66
2021/08/09 01:22:46;;;;;;;8.75;3.40;;;17.70;72.00;;;;;;5032252;28;20594;-67
2021/08/09 01:25:46;;;;;;;5.35;2.97;;;17.70;72.10;;;;;;5026007;28;20696;-62
2021/08/09 01:28:13;;;;;;;6.97;3.10;;;17.70;72.60;;;;;;5009932;28;20120;-69
2021/08/09 01:30:43;;;;;;;8.05;3.20;;;17.70;73.80;;;;;;5030736;28;20029;-67
2021/08/09 01:33:11;;;;;;;5.97;3.25;;;17.90;73.30;;;;;;5032249;28;20122;-69
2021/08/09 01:35:40;;;;;;;7.85;3.53;;;18.00;73.60;;;;;;5030414;28;20045;-70
2021/08/09 01:38:08;;;;;;;5.45;2.78;;;18.10;72.30;;;;;;5030429;28;20102;-65
2021/08/09 01:40:36;;;;;;;4.57;2.97;;;18.30;72.20;;;;;;5030414;28;20430;-70
2021/08/09 01:43:05;;;;;;;6.28;2.60;;;18.50;71.60;;;;;;5030385;28;20018;-68
2021/08/09 01:45:34;;;;;;;7.47;3.20;;;18.60;69.30;;;;;;5026793;28;20105;-61
2021/08/09 01:48:02;;;;;;;18.65;3.20;;;18.60;68.80;;;;;;5026289;28;20204;-61
2021/08/09 01:50:29;;;;;;;8.32;3.30;;;18.60;64.20;;;;;;5029429;28;20029;-61
2021/08/09 01:52:57;;;;;;;6.70;2.88;;;18.50;66.90;;;;;;5030367;28;20433;-68
2021/08/09 01:55:26;;;;;;;5.70;2.85;;;18.40;68.60;;;;;;5012755;28;20113;-75
2021/08/09 01:57:53;;;;;;;5.28;2.70;;;18.30;70.60;;;;;;5031038;28;20025;-70
2021/08/09 02:00:21;;;;;;;7.72;3.25;;;18.40;70.50;;;;;;5030517;28;20029;-73
2021/08/09 02:02:52;;;;;;;7.85;2.70;;;18.40;70.80;;;;;;5031308;28;20029;-67
2021/08/09 02:05:19;;;;;;;4.50;2.30;;;18.50;69.50;;;;;;5030636;28;20021;-66
2021/08/09 02:07:49;;;;;;;7.65;2.28;;;18.60;67.50;;;;;;5030632;28;20112;-68
2021/08/09 02:10:25;;;;;;;7.50;2.45;;;18.50;67.50;;;;;;5030846;28;20028;-66
2021/08/09 02:13:18;;;;;;;6.25;2.55;;;18.60;67.00;;;;;;5030515;28;20746;-67
2021/08/09 02:16:17;;;;;;;5.90;2.83;;;18.50;70.70;;;;;;5029156;28;20052;-72
2021/08/09 02:19:19;;;;;;;4.82;2.35;;;18.60;69.10;;;;;;5030428;28;20396;-73
2021/08/09 02:22:06;;;;;;;5.22;2.40;;;18.50;68.90;;;;;;5021377;28;20684;-65
2021/08/09 02:25:03;;;;;;;6.22;2.83;;;18.50;67.90;;;;;;5030467;28;20460;-69
2021/08/09 02:27:53;;;;;;;7.43;2.50;;;18.40;70.50;;;;;;5016038;28;20045;-67
2021/08/09 02:30:23;;;;;;;10.43;2.90;;;18.30;71.10;;;;;;5029262;28;20032;-69
2021/08/09 02:32:53;;;;;;;4.93;2.25;;;18.20;71.80;;;;;;5030896;28;20112;-69
2021/08/09 02:35:23;;;;;;;6.53;2.65;;;18.40;71.00;;;;;;5028583;28;21094;-72
2021/08/09 02:37:51;;;;;;;7.90;2.88;;;18.50;72.30;;;;;;5029845;28;20060;-72
2021/08/09 02:40:20;;;;;;;6.60;2.10;;;18.70;71.90;;;;;;5029960;28;20021;-71
2021/08/09 02:42:48;;;;;;;8.18;2.70;;;18.80;70.40;;;;;;5029062;28;20021;-71
2021/08/09 02:45:16;;;;;;;5.18;2.13;;;19.00;67.00;;;;;;5029222;28;20025;-68
2021/08/09 02:47:45;;;;;;;6.47;2.78;;;19.20;69.00;;;;;;5029680;28;20037;-74
2021/08/09 02:50:15;;;;;;;6.10;2.15;;;19.30;67.60;;;;;;5028883;28;20456;-63
2021/08/09 02:52:53;;;;;;;6.93;2.30;;;19.50;65.70;;;;;;5029967;28;20057;-73
2021/08/09 02:55:22;;;;;;;5.82;2.35;;;19.70;65.20;;;;;;5031966;28;20124;-70
2021/08/09 02:57:51;;;;;;;4.82;1.67;;;19.80;64.20;;;;;;5035058;28;20053;-67
2021/08/09 03:00:19;;;;;;;5.60;2.30;;;19.80;64.20;;;;;;5033503;28;20049;-66
2021/08/09 03:02:48;;;;;;;7.90;2.00;;;19.80;63.10;;;;;;5031375;28;20021;-62
2021/08/09 03:05:17;;;;;;;5.88;2.03;;;19.70;64.40;;;;;;5030364;28;20491;-73
2021/08/09 03:07:46;;;;;;;5.05;1.90;;;19.60;63.50;;;;;;5029797;28;20383;-71
2021/08/09 03:10:14;;;;;;;6.85;2.38;;;19.50;63.50;;;;;;5012620;28;20025;-71
2021/08/09 03:12:41;;;;;;;5.85;2.03;;;19.40;65.30;;;;;;5028428;28;20030;-77
2021/08/09 03:15:10;;;;;;;4.30;2.22;;;19.40;65.60;;;;;;5029744;28;20021;-64
2021/08/09 03:17:41;;;;;;;7.10;1.88;;;19.40;67.20;;;;;;5030589;28;20052;-72
2021/08/09 03:20:09;;;;;;;4.82;1.90;;;19.40;65.00;;;;;;5029724;28;20353;-73
2021/08/09 03:22:37;;;;;;;8.10;2.63;;;19.30;66.90;;;;;;5029125;28;20025;-71
2021/08/09 03:25:05;;;;;;;4.72;1.90;;;19.20;65.80;;;;;;5031165;28;20056;-75
2021/08/09 03:27:32;;;;;;;4.53;1.98;;;19.20;66.90;;;;;;5029608;28;20017;-75
2021/08/09 03:30:00;;;;;;;4.97;1.90;;;19.10;68.90;;;;;;5028162;28;20025;-64
2021/08/09 03:32:27;;;;;;;7.20;1.73;;;19.20;67.80;;;;;;5028624;28;20348;-72
2021/08/09 03:34:58;;;;;;;13.60;2.65;;;19.30;67.90;;;;;;5027270;28;20172;-63
2021/08/09 03:37:29;;;;;;;7.70;2.22;;;19.40;68.20;;;;;;5028365;28;20056;-67
2021/08/09 03:39:57;;;;;;;7.72;2.53;;;19.50;67.10;;;;;;5025556;28;20053;-65
2021/08/09 03:42:24;;;;;;;4.30;2.10;;;19.60;67.70;;;;;;5028491;28;20127;-74
2021/08/09 03:44:52;;;;;;;5.78;2.45;;;19.60;68.10;;;;;;5027869;28;20028;-70
2021/08/09 03:47:19;;;;;;;7.25;2.35;;;19.70;65.10;;;;;;5024052;28;20034;-64
2021/08/09 03:49:46;;;;;;;7.78;2.58;;;19.60;66.20;;;;;;5023367;28;20467;-65
2021/08/09 03:52:14;;;;;;;5.70;2.35;;;19.70;65.50;;;;;;5026765;28;20028;-65
2021/08/09 03:54:41;;;;;;;10.45;2.55;;;19.80;67.30;;;;;;5029273;28;20027;-65
2021/08/09 03:57:08;;;;;;;4.03;1.60;;;19.90;64.70;;;;;;5026530;28;20018;-67
2021/08/09 03:59:36;;;;;;;5.30;2.30;;;19.90;65.30;;;;;;5027126;28;20061;-72
2021/08/09 04:02:03;;;;;;;15.90;3.67;;;20.00;67.30;;;;;;5026675;28;20029;-70
2021/08/09 04:04:31;;;;;;;8.27;2.13;;;20.00;65.10;;;;;;5023266;28;20450;-67
2021/08/09 04:06:58;;;;;;;13.00;3.45;;;20.10;65.20;;;;;;5030294;28;20063;-66
2021/08/09 04:09:26;;;;;;;7.43;2.85;;;20.20;64.10;;;;;;5021980;28;20865;-66
2021/08/09 04:11:53;;;;;;;11.80;2.45;;;20.20;64.00;;;;;;5026474;28;20030;-67
2021/08/09 04:14:21;;;;;;;8.85;2.35;;;20.20;63.70;;;;;;5026310;28;20034;-68
2021/08/09 04:17:31;;;;;;;11.45;2.70;;;20.20;63.60;;;;;;5009088;28;20029;-66
2021/08/09 04:20:00;;;;;;;9.48;2.40;;;20.20;64.80;;;;;;5023389;28;20037;-68
2021/08/09 04:22:27;;;;;;;10.95;2.53;;;20.10;65.60;;;;;;5024817;28;20379;-65
2021/08/09 04:24:55;;;;;;;6.15;2.20;;;20.20;64.40;;;;;;5029004;28;20391;-63
2021/08/09 04:27:22;;;;;;;6.45;2.22;;;20.30;64.60;;;;;;5026702;28;20049;-63
2021/08/09 04:29:49;;;;;;;7.40;1.98;;;20.20;64.10;;;;;;5023603;28;20368;-65
2021/08/09 04:32:19;;;;;;;6.07;2.35;;;20.30;63.70;;;;;;4991751;28;20030;-66
2021/08/09 04:34:47;;;;;;;11.27;2.90;;;20.30;64.10;;;;;;5027044;28;20108;-70
2021/08/09 04:37:16;;;;;;;5.85;2.03;;;20.40;62.30;;;;;;5029642;28;20037;-66
2021/08/09 04:39:43;;;;;;;7.65;2.15;;;20.40;63.60;;;;;;5019743;28;20025;-58
2021/08/09 04:42:11;;;;;;;5.47;2.28;;;20.20;63.00;;;;;;5009806;28;21189;-66
2021/08/09 04:44:38;;;;;;;6.88;2.17;;;20.10;64.50;;;;;;5026492;28;20078;-70
2021/08/09 04:47:06;;;;;;;9.02;2.63;;;20.00;64.30;;;;;;5026203;28;20025;-58
2021/08/09 04:49:33;;;;;;;7.75;2.38;;;20.00;66.00;;;;;;5026600;28;20442;-71
2021/08/09 04:52:01;;;;;;;6.80;2.50;;;20.00;66.60;;;;;;5029258;28;20109;-67
2021/08/09 04:54:29;;;;;;;4.78;2.40;;;20.10;65.30;;;;;;5011380;28;20029;-70
2021/08/09 04:56:56;;;;;;;4.57;1.80;;;20.10;66.20;;;;;;5030458;28;20036;-68
2021/08/09 04:59:23;;;;;;;8.50;3.00;;;20.20;65.30;;;;;;5014486;28;20079;-70
2021/08/09 05:01:51;;;;;;;6.40;2.00;;;20.30;64.00;;;;;;5031480;28;20034;-67
2021/08/09 05:04:18;;;;;;;3.85;2.10;;;20.40;64.90;;;;;;5031876;28;20064;-76
2021/08/09 05:06:47;;;;;;;9.32;1.95;;;20.50;65.40;;;;;;5031290;28;20029;-65
2021/08/09 05:09:14;;;;;;;6.13;2.38;;;20.60;64.30;;;;;;5031147;28;20406;-67
2021/08/09 05:11:42;;;;;;;6.45;1.92;;;20.70;63.60;;;;;;5031564;28;20029;-70
2021/08/09 05:14:10;;;;;;;6.78;2.15;;;20.80;64.00;;;;;;5032082;28;20045;-65
2021/08/09 05:16:39;;;;;;;4.53;1.77;;;20.80;62.40;;;;;;5036717;28;20032;-63
2021/08/09 05:19:08;;;;;;;6.57;2.20;;;20.90;63.60;;;;;;5035391;28;20203;-74
2021/08/09 05:21:37;;;;;;;6.88;2.17;;;21.00;62.20;;;;;;5031169;28;20449;-67
2021/08/09 05:24:05;;;;;;;9.38;1.88;;;20.90;62.50;;;;;;5031526;28;20492;-76
2021/08/09 05:26:33;;;;;;;7.47;2.20;;;21.00;62.70;;;;;;5013642;28;20030;-71
2021/08/09 05:29:01;;;;;;;5.13;1.80;;;21.00;63.60;;;;;;5030827;28;20029;-72
2021/08/09 05:31:29;;;;;;;9.05;2.45;;;21.00;61.10;;;;;;5030793;28;20486;-75
2021/08/09 05:33:57;;;;;;;5.53;2.35;;;21.10;62.50;;;;;;5030106;28;20149;-72
2021/08/09 05:36:25;;;;;;;7.28;2.40;;;21.00;60.80;;;;;;5030315;28;20140;-72
2021/08/09 05:38:53;;;;;;;4.90;1.75;;;21.00;61.00;;;;;;5013384;28;20095;-68
2021/08/09 05:41:20;;;;;;;5.22;1.75;;;21.00;62.60;;;;;;5030964;28;20140;-72
2021/08/09 05:43:48;;;;;;;4.45;1.50;;;21.00;61.50;;;;;;5029395;28;20072;-74
2021/08/09 05:46:25;;;;;;;9.25;2.00;;;20.90;62.70;;;;;;5031333;28;20017;-63
2021/08/09 05:48:53;;;;;;;6.57;2.13;;;20.80;61.80;;;;;;5015124;28;20037;-69
2021/08/09 05:51:20;;;;;;;6.53;1.83;;;20.70;61.70;;;;;;5012820;28;20025;-71
2021/08/09 05:53:48;;;;;;;5.80;1.98;;;20.70;62.70;;;;;;5030494;28;20049;-66
2021/08/09 05:56:15;;;;;;;7.15;2.30;;;20.70;62.70;;;;;;5031159;28;20495;-61
2021/08/09 05:58:42;;;;;;;8.90;1.70;;;20.70;62.70;;;;;;5016405;28;20037;-67
2021/08/09 06:01:10;;;;;;;5.53;2.05;;;20.60;63.60;;;;;;5028547;28;20076;-72
2021/08/09 06:03:41;;;;;;;6.22;2.80;;;20.50;63.40;;;;;;5031555;28;20013;-69
2021/08/09 06:06:16;;;;;;;8.27;2.97;;;20.50;63.70;;;;;;5029159;28;20051;-71
2021/08/09 06:08:43;;;;;;;7.65;1.90;;;20.50;64.50;;;;;;5022162;28;20049;-71
2021/08/09 06:11:11;;;;;;;4.82;1.55;;;20.40;64.40;;;;;;5029228;28;20021;-68
2021/08/09 06:13:41;;;;;;;13.15;2.75;;;20.30;63.30;;;;;;5028294;28;20539;-72
2021/08/09 06:16:09;;;;;;;11.27;2.35;;;20.30;64.40;;;;;;5027065;28;20055;-71
2021/08/09 06:18:37;;;;;;;6.03;1.92;;;20.20;64.60;;;;;;5023255;28;20475;-62
2021/08/09 06:21:05;;;;;;;13.82;3.53;;;20.10;64.10;;;;;;5010621;28;20037;-72
2021/08/09 06:23:33;;;;;;;6.80;2.13;;;20.00;65.00;;;;;;5033125;28;20029;-58
2021/08/09 06:26:00;;;;;;;9.15;2.67;;;19.90;65.40;;;;;;5029498;28;20104;-71
2021/08/09 06:28:28;;;;;;;16.05;2.88;;;19.80;64.80;;;;;;5025902;28;20392;-67
2021/08/09 06:30:55;;;;;;;8.93;2.42;;;19.70;65.00;;;;;;5029359;28;20037;-66
2021/08/09 06:33:22;;;;;;;8.63;2.35;;;19.60;65.20;;;;;;5026550;28;20037;-68
2021/08/09 06:35:50;;;;;;;12.70;2.65;;;19.50;65.10;;;;;;5032882;28;20053;-70
2021/08/09 06:38:17;;;;;;;8.73;2.22;;;19.40;66.10;;;;;;5021416;28;20184;-71
2021/08/09 06:40:45;;;;;;;3.15;1.55;;;19.30;66.50;;;;;;5029017;28;20744;-69
2021/08/09 06:43:13;;;;;;;4.65;1.55;;;19.10;67.90;;;;;;5027286;28;20025;-67
2021/08/09 06:45:44;;;;;;;6.60;1.95;;;19.00;68.30;;;;;;5011229;28;20083;-69
2021/08/09 06:48:12;;;;;;;5.97;1.73;;;19.00;69.00;;;;;;5021105;28;20120;-71
2021/08/09 06:50:41;;;;;;;4.07;1.63;;;18.90;69.10;;;;;;5028624;28;20021;-67
2021/08/09 06:53:09;;;;;;;5.50;2.35;;;18.70;69.80;;;;;;5026034;28;20033;-68
2021/08/09 06:55:37;;;;;;;7.63;2.22;;;18.70;69.80;;;;;;5029039;28;20083;-71
2021/08/09 06:58:04;;;;;;;5.82;1.75;;;18.60;69.60;;;;;;5023293;28;20030;-72
2021/08/09 07:00:32;;;;;;;4.00;1.40;;;18.60;70.80;;;;;;5029365;28;20022;-63
2021/08/09 07:03:17;;;;;;;6.53;1.70;;;18.50;71.10;;;;;;5034049;28;20028;-68
2021/08/09 07:05:46;;;;;;;4.25;2.08;;;18.40;71.50;;;;;;5024386;28;20939;-72
2021/08/09 07:08:15;;;;;;;7.47;1.77;;;18.40;72.00;;;;;;5019366;28;20033;-68
2021/08/09 07:10:44;;;;;;;5.93;1.70;;;18.30;71.80;;;;;;5030247;28;20026;-66
2021/08/09 07:13:12;;;;;;;5.72;1.50;;;18.30;72.30;;;;;;5029261;28;20415;-68
2021/08/09 07:15:46;;;;;;;5.63;1.63;;;18.20;72.40;;;;;;5030234;28;20333;-67
2021/08/09 07:18:15;;;;;;;5.95;1.73;;;18.10;72.70;;;;;;5020937;28;20022;-69
2021/08/09 07:20:43;;;;;;;5.30;1.75;;;18.10;72.90;;;;;;5026300;28;20337;-67
2021/08/09 07:23:10;;;;;;;7.07;1.50;;;18.10;73.20;;;;;;5028026;28;20335;-71
2021/08/09 07:25:37;;;;;;;6.78;1.92;;;18.00;73.50;;;;;;5031283;28;20148;-66
2021/08/09 07:28:05;;;;;;;6.45;2.13;;;18.00;73.70;;;;;;5019297;28;20475;-68
2021/08/09 07:30:32;;;;;;;7.82;1.98;;;18.00;73.90;;;;;;5009668;28;20030;-63
2021/08/09 07:33:00;;;;;;;7.72;2.17;;;18.00;74.10;;;;;;5009301;28;20068;-67
2021/08/09 07:35:27;;;;;;;5.70;1.98;;;17.90;74.20;;;;;;5027279;28;20100;-68
2021/08/09 07:37:55;;;;;;;4.55;1.83;;;17.90;74.40;;;;;;5024655;28;20029;-67
2021/08/09 07:40:23;;;;;;;9.30;2.25;;;17.90;74.20;;;;;;5028070;28;20053;-67
2021/08/09 07:42:51;;;;;;;5.63;2.13;;;17.80;74.60;;;;;;5027173;28;20480;-69
2021/08/09 07:45:20;;;;;;;7.88;2.50;;;17.80;74.80;;;;;;5009796;28;20026;-60
2021/08/09 07:47:52;;;;;;;4.88;1.60;;;17.80;74.70;;;;;;5018712;28;20514;-64
2021/08/09 07:50:20;;;;;;;7.45;2.13;;;17.70;74.90;;;;;;5030405;28;20026;-70
2021/08/09 07:52:48;;;;;;;5.72;2.00;;;17.70;75.00;;;;;;5024791;28;20044;-64
2021/08/09 07:55:16;;;;;;;7.15;2.28;;;17.70;75.00;;;;;;5026519;28;20498;-67
2021/08/09 07:57:43;;;;;;;4.45;1.88;;;17.70;75.30;;;;;;5019775;28;20017;-65
2021/08/09 08:00:11;;;;;;;4.50;1.65;;;17.70;75.40;;;;;;5026991;28;20163;-62
2021/08/09 08:02:38;;;;;;;4.60;1.48;;;17.70;75.40;;;;;;5027067;28;20154;-67
2021/08/09 08:05:06;;;;;;;5.72;1.83;;;17.60;75.60;;;;;;5026380;28;20049;-65
2021/08/09 08:07:34;;;;;;;4.88;1.60;;;17.60;75.70;;;;;;5022933;28;20175;-66
2021/08/09 08:10:02;;;;;;;4.00;1.55;;;17.60;75.70;;;;;;5026162;28;20033;-64
2021/08/09 08:12:32;;;;;;;6.68;2.10;;;17.60;75.70;;;;;;5030953;28;20041;-65
2021/08/09 08:15:00;;;;;;;5.90;1.60;;;17.60;75.80;;;;;;5023485;28;20021;-64
2021/08/09 08:17:27;;;;;;;8.25;1.60;;;17.60;75.80;;;;;;5021978;28;20034;-62
2021/08/09 08:19:54;;;;;;;4.25;1.50;;;17.60;75.80;;;;;;5025947;28;20029;-64
2021/08/09 08:22:22;;;;;;;6.50;2.05;;;17.50;75.60;;;;;;5026113;28;20511;-67
2021/08/09 08:24:49;;;;;;;6.00;1.67;;;17.50;75.70;;;;;;5026743;28;20037;-71
2021/08/09 08:27:17;;;;;;;6.25;1.50;;;17.50;75.50;;;;;;5029483;28;20041;-66
2021/08/09 08:29:44;;;;;;;8.07;1.77;;;17.50;75.60;;;;;;5025995;28;20072;-66
2021/08/09 08:32:11;;;;;;;8.77;2.08;;;17.50;75.60;;;;;;5031619;28;20040;-62
2021/08/09 08:34:39;;;;;;;6.03;1.67;;;17.40;75.60;;;;;;5030479;28;20037;-70
2021/08/09 08:37:09;;;;;;;6.20;1.60;;;17.40;75.70;;;;;;5024759;28;20041;-66
2021/08/09 08:39:36;;;;;;;7.00;2.63;;;17.40;75.70;;;;;;5034021;28;20036;-64
2021/08/09 08:42:04;;;;;;;5.53;1.52;;;17.40;75.60;;;;;;5027008;28;20027;-66
2021/08/09 08:44:31;;;;;;;4.40;1.48;;;17.40;75.70;;;;;;5030737;28;20021;-64
2021/08/09 08:47:00;;;;;;;5.45;1.60;;;17.40;75.80;;;;;;5028383;28;20087;-64
2021/08/09 08:49:28;;;;;;;4.95;1.67;;;17.40;75.70;;;;;;5026618;28;20040;-62
2021/08/09 08:51:55;;;;;;;5.45;1.95;;;17.30;75.70;;;;;;5027055;28;20022;-65
2021/08/09 08:54:23;;;;;;;5.68;1.92;;;17.30;75.70;;;;;;5030300;28;20165;-67
2021/08/09 08:56:50;;;;;;;4.47;1.63;;;17.40;75.80;;;;;;5030484;28;20029;-64
2021/08/09 08:59:18;;;;;;;7.28;2.13;;;17.30;75.80;;;;;;5021508;28;20356;-64
2021/08/09 09:01:53;;;;;;;6.65;1.70;;;17.30;75.90;;;;;;5030167;28;20385;-61
2021/08/09 09:04:39;;;;;;;6.63;1.83;;;17.30;75.90;;;;;;5030276;28;20098;-56
2021/08/09 09:07:08;;;;;;;3.72;1.38;;;17.30;75.90;;;;;;5024622;28;20060;-70
2021/08/09 09:09:38;;;;;;;4.65;1.75;;;17.30;75.90;;;;;;5027931;28;20109;-69
2021/08/09 09:12:19;;;;;;;5.75;2.03;;;17.30;75.80;;;;;;5029957;28;20144;-66
2021/08/09 09:15:02;;;;;;;4.75;2.03;;;17.20;76.00;;;;;;5026622;28;20033;-64
2021/08/09 09:17:40;;;;;;;7.18;2.13;;;17.20;76.10;;;;;;5020179;28;20026;-65
2021/08/09 09:20:31;;;;;;;5.88;2.28;;;17.20;76.30;;;;;;5029364;28;20116;-73
2021/08/09 09:23:20;;;;;;;5.95;2.80;;;17.20;76.10;;;;;;5028697;28;20022;-69
2021/08/09 09:25:49;;;;;;;7.13;2.13;;;17.20;76.10;;;;;;5034449;28;20029;-69
2021/08/09 09:28:23;;;;;;;6.63;2.70;;;17.20;76.30;;;;;;5019475;28;20055;-64
2021/08/09 09:30:51;;;;;;;17.42;3.65;;;17.20;76.30;;;;;;5030882;28;20544;-65
2021/08/09 09:33:19;;;;;;;7.63;3.35;;;17.20;76.40;;;;;;5012273;28;20432;-60
2021/08/09 09:35:51;;;;;;;9.43;3.00;;;17.20;76.50;;;;;;5030358;28;20064;-72
2021/08/09 09:38:19;;;;;;;12.38;3.78;;;17.20;76.70;;;;;;5029018;28;20061;-68
2021/08/09 09:40:47;;;;;;;8.60;3.60;;;17.20;76.70;;;;;;5031712;28;20077;-65
2021/08/09 09:43:22;;;;;;;10.25;4.15;;;17.20;76.70;;;;;;5032971;28;20028;-62
2021/08/09 09:45:54;;;;;;;11.63;4.70;;;17.20;76.90;;;;;;5030348;28;20017;-65
2021/08/09 09:48:39;;;;;;;10.50;4.50;;;17.10;76.90;;;;;;5022938;28;20079;-74
2021/08/09 09:51:14;;;;;;;10.38;4.72;;;17.10;76.90;;;;;;5027758;28;20032;-74
2021/08/09 09:53:43;;;;;;;10.15;4.72;;;17.10;77.10;;;;;;5028145;28;20033;-70
2021/08/09 09:56:10;;;;;;;10.32;4.97;;;17.10;77.20;;;;;;5030119;28;20436;-70
2021/08/09 09:58:39;;;;;;;13.68;5.15;;;17.10;77.20;;;;;;5025233;28;20045;-65
2021/08/09 10:01:08;;;;;;;12.50;5.50;;;17.10;77.20;;;;;;5030896;28;20108;-69
2021/08/09 10:03:37;;;;;;;13.30;5.40;;;17.10;77.10;;;;;;5029629;28;20033;-67
2021/08/09 10:06:06;;;;;;;17.60;5.72;;;17.10;77.10;;;;;;5029234;28;20148;-64
2021/08/09 10:08:40;;;;;;;9.32;5.03;;;17.10;77.00;;;;;;5023332;28;20014;-67
2021/08/09 10:11:08;;;;;;;8.82;4.53;;;17.10;77.00;;;;;;5030018;28;20492;-70
2021/08/09 10:13:38;;;;;;;13.20;5.97;;;17.10;77.00;;;;;;5027918;28;20502;-65
2021/08/09 10:16:35;;;;;;;15.30;5.38;;;17.10;77.00;;;;;;5029607;28;20035;-64
2021/08/09 10:19:03;;;;;;;11.90;5.20;;;17.10;76.90;;;;;;5021984;28;20033;-65
2021/08/09 10:21:32;;;;;;;10.55;4.82;;;17.10;76.90;;;;;;5029071;28;20106;-66
2021/08/09 10:24:00;;;;;;;8.77;4.68;;;17.10;77.00;;;;;;5029563;28;20037;-70
2021/08/09 10:26:33;;;;;;;9.85;4.50;;;17.10;77.00;;;;;;5029272;28;20333;-70
2021/08/09 10:29:06;;;;;;;12.55;5.38;;;17.10;77.00;;;;;;5022621;28;20414;-70
2021/08/09 10:31:39;;;;;;;;;;;17.00;77.00;;;;;;5029830;28;20025;-64
2021/08/09 10:34:30;;;;;;;14.27;5.82;;;17.00;76.90;;;;;;5030079;28;20012;-67
2021/08/09 10:37:14;;;;;;;8.70;4.68;;;17.00;77.00;;;;;;5025909;28;20109;-66
2021/08/09 10:39:52;;;;;;;13.43;5.35;;;17.00;77.10;;;;;;5022765;28;20088;-67
2021/08/09 10:42:33;;;;;;;11.38;5.40;;;17.00;77.10;;;;;;5026477;28;20091;-66
2021/08/09 10:45:02;;;;;;;10.93;5.47;;;17.00;77.10;;;;;;5028793;28;20100;-72
2021/08/09 10:47:48;;;;;;;10.68;5.20;;;17.00;77.30;;;;;;5024379;28;20664;-65
2021/08/09 10:50:36;;;;;;;9.57;4.70;;;17.00;77.20;;;;;;5025326;28;20497;-65
2021/08/09 10:53:03;;;;;;;8.18;4.63;;;16.90;77.20;;;;;;5027537;28;20095;-72
2021/08/09 10:55:37;;;;;;;8.68;4.55;;;17.00;77.20;;;;;;5031749;28;20483;-68
2021/08/09 10:58:06;;;;;;;8.30;4.68;;;16.90;77.30;;;;;;5023237;28;20025;-64
2021/08/09 11:00:45;;;;;;;10.85;4.80;;;16.90;77.30;;;;;;5032204;28;20108;-71
2021/08/09 11:03:18;;;;;;;10.25;4.70;;;16.90;77.30;;;;;;5029074;28;20495;-67
2021/08/09 11:05:47;;;;;;;9.70;4.93;;;16.90;77.30;;;;;;5027581;28;20395;-66
2021/08/09 11:08:21;;;;;;;7.93;4.60;;;16.90;77.30;;;;;;5023048;28;20025;-64
2021/08/09 11:11:02;;;;;;;9.45;4.43;;;16.90;77.40;;;;;;5027554;28;20511;-70
2021/08/09 11:13:42;;;;;;;8.73;4.07;;;16.90;77.30;;;;;;5024940;28;20126;-68
2021/08/09 11:16:09;;;;;;;12.52;4.70;;;16.90;77.30;;;;;;5030377;28;20074;-66
2021/08/09 11:18:37;;;;;;;11.02;4.38;;;16.90;77.30;;;;;;5021230;28;20057;-67
2021/08/09 11:21:07;;;;;;;10.82;4.72;;;16.90;77.30;;;;;;5027121;28;20117;-66
2021/08/09 11:23:43;;;;;;;8.73;4.00;;;16.90;77.40;;;;;;5028181;28;20040;-62
2021/08/09 11:26:24;;;;;;;11.38;4.72;;;16.80;77.60;;;;;;5029139;28;20396;-69
2021/08/09 11:29:05;;;;;;;8.82;4.18;;;16.90;77.70;;;;;;5024448;28;20037;-63
2021/08/09 11:31:50;;;;;;;13.15;5.30;;;16.80;77.70;;;;;;5029337;28;20052;-63
2021/08/09 11:34:28;;;;;;;;;;;;;;;;;;;;;
2021/08/09 11:37:05;;;;;;;8.25;4.50;;;16.80;77.60;;;;;;5010418;28;20056;-70
2021/08/09 11:40:09;;;;;;;9.65;4.00;;;16.80;77.60;;;;;;5009930;28;20033;-66
2021/08/09 11:42:49;;;;;;;7.70;4.22;;;16.80;77.60;;;;;;5003759;28;20366;-65
2021/08/09 11:46:14;;;;;;;;;;;;;;;;;;;;;
2021/08/09 11:49:41;;;;;;;9.55;4.47;;;16.80;77.60;;;;;;4995622;28;20046;-75
2021/08/09 11:52:27;;;;;;;9.13;4.15;;;16.80;77.60;;;;;;4990851;28;20050;-62
2021/08/09 11:55:05;;;;;;;9.18;4.43;;;16.80;77.70;;;;;;5014346;28;20040;-66
2021/08/09 11:57:42;;;;;;;9.32;4.68;;;16.80;77.60;;;;;;5000841;28;20108;-64
2021/08/09 12:00:35;;;;;;;10.30;4.45;;;16.80;77.60;;;;;;5012196;28;20030;-72
2021/08/09 12:03:09;;;;;;;;;;;16.80;77.60;;;;;;5013702;28;20050;-65
2021/08/09 12:05:41;;;;;;;8.95;3.97;;;16.80;77.50;;;;;;5010100;28;20976;-64
2021/08/09 12:08:08;;;;;;;;;;;16.80;77.50;;;;;;5005013;28;20026;-64
2021/08/09 12:10:38;;;;;;;9.10;4.10;;;16.70;77.40;;;;;;5007879;28;19945;-67
2021/08/09 12:13:26;;;;;;;7.55;3.95;;;16.70;77.50;;;;;;4999472;28;20036;-66
2021/08/09 12:16:07;;;;;;;9.60;4.05;;;16.70;77.50;;;;;;5009434;28;20120;-66
2021/08/09 12:18:35;;;;;;;6.07;3.37;;;16.80;77.50;;;;;;5001633;28;20049;-69
2021/08/09 12:21:17;;;;;;;11.18;4.28;;;16.70;77.50;;;;;;5008503;28;20433;-70
2021/08/09 12:23:52;;;;;;;8.20;3.55;;;16.70;77.50;;;;;;5011940;28;20030;-69
2021/08/09 12:26:25;;;;;;;9.10;4.22;;;16.70;77.50;;;;;;5007672;28;20492;-67
2021/08/09 12:28:55;;;;;;;7.43;3.55;;;16.70;77.40;;;;;;5001094;28;20034;-72
2021/08/09 12:31:45;;;;;;;9.18;3.78;;;16.70;77.50;;;;;;5008572;28;20030;-74
2021/08/09 12:34:17;;;;;;;8.05;3.72;;;16.70;77.60;;;;;;5012491;28;20044;-70
2021/08/09 12:36:45;;;;;;;8.43;3.92;;;16.70;77.50;;;;;;5024548;28;20064;-63
2021/08/09 12:39:33;;;;;;;10.20;4.18;;;16.70;77.60;;;;;;5020375;28;20052;-67
2021/08/09 12:42:15;;;;;;;8.60;3.92;;;16.70;77.60;;;;;;5027071;28;20036;-63
2021/08/09 12:44:44;;;;;;;9.13;3.53;;;16.60;77.50;;;;;;5026280;28;20056;-74
2021/08/09 12:47:12;;;;;;;11.48;4.10;;;16.60;77.60;;;;;;5027824;28;20055;-62
2021/08/09 12:49:40;;;;;;;7.15;3.35;;;16.60;77.60;;;;;;5024413;28;20018;-64
2021/08/09 12:52:07;;;;;;;7.10;3.58;;;16.60;77.60;;;;;;5023442;28;20030;-66
2021/08/09 12:54:36;;;;;;;6.40;3.13;;;16.60;77.60;;;;;;5025612;28;20042;-69
2021/08/09 12:57:04;;;;;;;7.93;3.67;;;16.60;77.60;;;;;;5023526;28;20261;-59
2021/08/09 12:59:31;;;;;;;9.73;4.32;;;16.50;77.60;;;;;;5025748;28;20060;-71
2021/08/09 13:01:59;;;;;;;8.52;3.80;;;16.50;77.60;;;;;;5032731;28;20029;-73
2021/08/09 13:04:26;;;;;;;8.88;4.00;;;16.50;77.60;;;;;;5032309;28;20047;-68
2021/08/09 13:06:55;;;;;;;4.93;2.80;;;16.50;77.70;;;;;;5032999;28;20029;-69
2021/08/09 13:09:23;;;;;;;7.15;3.22;;;16.50;77.70;;;;;;5031528;28;20120;-70
2021/08/09 13:11:51;;;;;;;6.88;3.75;;;16.50;77.70;;;;;;5028837;28;20057;-69